Zim Qingdao — A8IZ2 — position and weather

sailwx.info

Track history (hours):
 
Tides and Currents Weather Stations Pressure Air Temp Water Temp Dewpoint Dewpoint Depression Visibility Wind Speed Wind Dir Waves Ship Positions

Zim Qingdao

Last reported at 2015-May-27 01:33 UTC. Time now 2015-May-27 01:44 UTC.
Position N 36°16' W 009°03'.

Length 260.61 m; beam 32.25 m; draft 12.6 m.

Type: Cargo ship. MMSI: 636012904.

Date/timePositionNaut miles runAvg speedWind from/ knotsBaromVisibWave heightAir tempDewpointWater temp
2015-May-27 01:33N 36°16' W 009°03'1515.0
2015-May-27 00:33N 36°13' W 008°45'1515.2
2015-May-26 23:33N 36°11' W 008°26'2115.1
2015-May-26 22:09N 36°09' W 007°60'915.2
2015-May-26 21:34N 36°08' W 007°49'1515.0
2015-May-26 20:34N 36°06' W 007°30'1514.9
2015-May-26 19:34N 36°04' W 007°12'1514.8
2015-May-26 18:34N 36°02' W 006°54'1515.0
2015-May-26 17:34N 36°01' W 006°36'1914.7
2015-May-26 16:17N 35°58' W 006°13'3014.6
2015-May-26 14:15N 35°58' W 005°36'913.5
2015-May-26 13:34N 36°01' W 005°25'12014.9
2015-May-26 05:32N 36°20' W 002°58'1515.5
2015-May-26 04:33N 36°22' W 002°39'1615.6
2015-May-26 03:33N 36°25' W 002°20'4815.5
2015-May-26 00:27N 36°53' W 001°32'4515.6
2015-May-25 21:33N 37°23' W 000°49'1515.4
2015-May-25 20:33N 37°33' W 000°35'1515.3
2015-May-25 19:33N 37°46' W 000°24'1515.3
2015-May-25 18:34N 37°59' W 000°13'1515.0
2015-May-25 17:33N 38°11' W 000°03'1514.9
2015-May-25 16:33N 38°24' E 000°07'1615.6
2015-May-25 15:33N 38°37' E 000°19'1813.3
2015-May-25 14:12N 38°55' E 000°14'4014.9
2015-May-25 11:30N 39°26' W 000°18'1 1.2
2015-May-25 10:32N 39°27' W 000°19'0 0.0
2015-May-25 09:32N 39°27' W 000°19'0 0.0
2015-May-25 08:32N 39°27' W 000°19'0 0.0
2015-May-25 07:32N 39°27' W 000°19'0 0.0
2015-May-25 06:32N 39°27' W 000°19'0 0.0
2015-May-25 05:32N 39°27' W 000°19'0 0.0
2015-May-25 04:32N 39°27' W 000°19'0 0.0
2015-May-25 03:32N 39°27' W 000°19'0 0.0
2015-May-25 02:32N 39°27' W 000°19'0 0.0
2015-May-25 01:32N 39°27' W 000°19'0 0.0
2015-May-25 00:32N 39°27' W 000°19'0 0.0
2015-May-24 23:32N 39°27' W 000°19'4 3.9
2015-May-24 22:33N 39°25' W 000°15'1110.3
2015-May-24 21:29N 39°32' W 000°03'2912.2
2015-May-24 19:09N 39°52' E 000°23'1912.0
2015-May-24 17:32N 40°05' E 000°41'1111.6
2015-May-24 16:33N 40°13' E 000°52'1411.5
2015-May-24 15:20N 40°22' E 001°06'911.4
2015-May-24 14:32N 40°28' E 001°15'1111.4
2015-May-24 13:33N 40°36' E 001°26'1111.3
2015-May-24 12:33N 40°44' E 001°36'1111.5
2015-May-24 11:33N 40°53' E 001°46'1211.7
2015-May-24 10:33N 41°02' E 001°55'1211.9
2015-May-24 09:33N 41°11' E 002°05'10 9.9
2015-May-24 08:32N 41°21' E 002°10'0 0.1
2015-May-24 07:31N 41°21' E 002°10'0 0.0
2015-May-24 06:28N 41°21' E 002°10'0 0.0
2015-May-24 03:23N 41°21' E 002°10'0 0.0
2015-May-24 01:16N 41°21' E 002°10'0 0.0
2015-May-24 00:29N 41°21' E 002°10'0 0.0
2015-May-23 23:26N 41°21' E 002°10'1 0.7
2015-May-23 22:32N 41°20' E 002°10'7 5.7
2015-May-23 21:21N 41°14' E 002°07'1012.4
2015-May-23 20:30N 41°09' E 001°55'1612.2
2015-May-23 19:12N 41°06' E 001°34'812.0
2015-May-23 18:32N 41°05' E 001°24'8 5.9
2015-May-23 17:07N 41°06' E 001°13'0 0.0
2015-May-23 16:32N 41°06' E 001°13'0 0.0
2015-May-23 15:20N 41°06' E 001°13'28413.0
2015-May-22 17:33N 43°07' E 006°59'1616.5
2015-May-22 16:33N 43°17' E 007°17'1616.5
2015-May-22 15:33N 43°27' E 007°34'2417.1
2015-May-22 14:08N 43°42' E 008°01'1118.0
2015-May-22 13:30N 43°49' E 008°14'1718.1
2015-May-22 12:34N 44°01' E 008°31'1817.8
2015-May-22 11:34N 44°13' E 008°49'1211.7
2015-May-22 10:33N 44°24' E 008°55'1 1.1
2015-May-22 09:33N 44°24' E 008°54'0 0.0
2015-May-22 08:33N 44°24' E 008°54'0 0.0
2015-May-22 07:33N 44°24' E 008°54'0 0.0
2015-May-22 06:33N 44°24' E 008°54'0 0.0
2015-May-22 05:33N 44°24' E 008°54'0 0.0
2015-May-22 04:27N 44°24' E 008°54'0 0.0
2015-May-22 03:30N 44°24' E 008°54'0 0.0
2015-May-22 02:33N 44°24' E 008°54'0 0.0
2015-May-22 01:30N 44°24' E 008°54'0 0.0
2015-May-22 00:33N 44°24' E 008°54'0 0.0
2015-May-21 23:33N 44°24' E 008°54'0 0.0
2015-May-21 22:33N 44°24' E 008°54'0 0.0
2015-May-21 21:30N 44°24' E 008°54'0 0.0
2015-May-21 20:33N 44°24' E 008°54'0 0.0
2015-May-21 19:30N 44°24' E 008°54'0 0.0
2015-May-21 18:33N 44°24' E 008°54'0 0.0
2015-May-21 17:33N 44°24' E 008°54'0 0.0
2015-May-21 16:33N 44°24' E 008°54'0 0.0
2015-May-21 15:33N 44°24' E 008°54'0 0.0
2015-May-21 14:30N 44°24' E 008°54'0 0.0
2015-May-21 13:33N 44°24' E 008°54'0 0.2
2015-May-21 12:33N 44°24' E 008°54'4 3.8
2015-May-21 11:33N 44°22' E 008°58'8 7.9
2015-May-21 10:33N 44°15' E 009°04'1918.6
2015-May-21 09:33N 44°01' E 009°20'1818.2
2015-May-21 08:33N 43°46' E 009°36'1817.8
2015-May-21 07:33N 43°33' E 009°52'1616.3
2015-May-21 06:33N 43°31' E 010°14'5 4.9
2015-May-21 05:32N 43°35' E 010°18'0 0.0
2015-May-21 04:32N 43°35' E 010°18'0 0.0
2015-May-21 03:32N 43°35' E 010°18'0 0.0
2015-May-21 02:32N 43°35' E 010°18'0 0.0
2015-May-21 01:32N 43°35' E 010°18'0 0.0
2015-May-21 00:32N 43°35' E 010°18'0 0.0
2015-May-20 23:32N 43°35' E 010°18'0 0.0
2015-May-20 22:29N 43°35' E 010°18'0 0.0
2015-May-20 21:32N 43°35' E 010°18'0 0.0
2015-May-20 20:32N 43°35' E 010°18'0 0.0
2015-May-20 19:32N 43°35' E 010°18'0 0.0
2015-May-20 18:32N 43°35' E 010°18'0 0.0
2015-May-20 17:32N 43°35' E 010°18'0 0.0
2015-May-20 16:32N 43°35' E 010°18'0 0.0
2015-May-20 15:32N 43°35' E 010°18'0 0.0
2015-May-20 14:29N 43°35' E 010°18'0 0.0
2015-May-20 13:32N 43°35' E 010°18'0 0.0
2015-May-20 12:32N 43°35' E 010°18'0 0.0
2015-May-20 11:32N 43°35' E 010°18'0 0.0
2015-May-20 10:32N 43°35' E 010°18'0 0.0
2015-May-20 09:32N 43°35' E 010°18'0 0.0
2015-May-20 08:32N 43°35' E 010°18'0 0.0
2015-May-20 07:32N 43°35' E 010°18'2 2.1
2015-May-20 06:33N 43°33' E 010°17'5 4.9
2015-May-20 05:34N 43°29' E 010°13'1 1.0
2015-May-20 04:34N 43°28' E 010°12'2 2.4
2015-May-20 03:34N 43°26' E 010°12'10 9.7
2015-May-20 02:34N 43°16' E 010°10'1313.1
2015-May-20 01:33N 43°03' E 010°06'1514.7
2015-May-20 00:33N 42°49' E 010°00'1614.6
2015-May-19 23:29N 42°34' E 009°55'1814.6
2015-May-19 22:17N 42°17' E 010°00'23114.7
2015-May-19 06:33N 39°42' E 013°47'1714.8
2015-May-19 05:26N 39°31' E 014°03'1314.4
2015-May-19 04:32N 39°22' E 014°15'1414.6
2015-May-19 03:33N 39°13' E 014°29'3214.7
2015-May-19 01:22N 38°51' E 015°00'41912.8
2015-May-17 16:34N 36°57' E 023°31'1515.1
2015-May-17 15:34N 37°11' E 023°37'1515.2
2015-May-17 14:33N 37°26' E 023°41'1212.5
2015-May-17 13:33N 37°38' E 023°42'1313.3
2015-May-17 12:33N 37°51' E 023°36'6 5.9
2015-May-17 11:29N 37°57' E 023°36'0 0.0
2015-May-17 10:32N 37°57' E 023°36'0 0.0
2015-May-17 09:32N 37°57' E 023°36'0 0.0
2015-May-17 08:29N 37°57' E 023°36'0 0.0
2015-May-17 07:29N 37°57' E 023°36'0 0.0
2015-May-17 06:32N 37°57' E 023°36'0 0.0
2015-May-17 05:29N 37°57' E 023°36'0 0.0
2015-May-17 04:29N 37°57' E 023°36'0 0.0
2015-May-17 03:29N 37°57' E 023°36'0 0.0
2015-May-17 02:29N 37°57' E 023°36'  
Track history (hours):
 
Tides and Currents Weather Stations Pressure Air Temp Water Temp Dewpoint Dewpoint Depression Visibility Wind Speed Wind Dir Waves Ship Positions

Zim Qingdao

Last reported at 2015-May-27 01:33 UTC. Time now 2015-May-27 01:44 UTC.
Position N 36°16' W 009°03'.

Length 260.61 m; beam 32.25 m; draft 12.6 m.

Type: Cargo ship. MMSI: 636012904.

Date/timePositionNaut miles runAvg speedWind from/ knotsBaromVisibWave heightAir tempDewpointWater temp
2015-May-27 01:33N 36°16' W 009°03'1515.0
2015-May-27 00:33N 36°13' W 008°45'1515.2
2015-May-26 23:33N 36°11' W 008°26'2115.1
2015-May-26 22:09N 36°09' W 007°60'915.2
2015-May-26 21:34N 36°08' W 007°49'1515.0
2015-May-26 20:34N 36°06' W 007°30'1514.9
2015-May-26 19:34N 36°04' W 007°12'1514.8
2015-May-26 18:34N 36°02' W 006°54'1515.0
2015-May-26 17:34N 36°01' W 006°36'1914.7
2015-May-26 16:17N 35°58' W 006°13'3014.6
2015-May-26 14:15N 35°58' W 005°36'913.5
2015-May-26 13:34N 36°01' W 005°25'12014.9
2015-May-26 05:32N 36°20' W 002°58'1515.5
2015-May-26 04:33N 36°22' W 002°39'1615.6
2015-May-26 03:33N 36°25' W 002°20'4815.5
2015-May-26 00:27N 36°53' W 001°32'4515.6
2015-May-25 21:33N 37°23' W 000°49'1515.4
2015-May-25 20:33N 37°33' W 000°35'1515.3
2015-May-25 19:33N 37°46' W 000°24'1515.3
2015-May-25 18:34N 37°59' W 000°13'1515.0
2015-May-25 17:33N 38°11' W 000°03'1514.9
2015-May-25 16:33N 38°24' E 000°07'1615.6
2015-May-25 15:33N 38°37' E 000°19'1813.3
2015-May-25 14:12N 38°55' E 000°14'4014.9
2015-May-25 11:30N 39°26' W 000°18'1 1.2
2015-May-25 10:32N 39°27' W 000°19'0 0.0
2015-May-25 09:32N 39°27' W 000°19'0 0.0
2015-May-25 08:32N 39°27' W 000°19'0 0.0
2015-May-25 07:32N 39°27' W 000°19'0 0.0
2015-May-25 06:32N 39°27' W 000°19'0 0.0
2015-May-25 05:32N 39°27' W 000°19'0 0.0
2015-May-25 04:32N 39°27' W 000°19'0 0.0
2015-May-25 03:32N 39°27' W 000°19'0 0.0
2015-May-25 02:32N 39°27' W 000°19'0 0.0
2015-May-25 01:32N 39°27' W 000°19'0 0.0
2015-May-25 00:32N 39°27' W 000°19'0 0.0
2015-May-24 23:32N 39°27' W 000°19'4 3.9
2015-May-24 22:33N 39°25' W 000°15'1110.3
2015-May-24 21:29N 39°32' W 000°03'2912.2
2015-May-24 19:09N 39°52' E 000°23'1912.0
2015-May-24 17:32N 40°05' E 000°41'1111.6
2015-May-24 16:33N 40°13' E 000°52'1411.5
2015-May-24 15:20N 40°22' E 001°06'911.4
2015-May-24 14:32N 40°28' E 001°15'1111.4
2015-May-24 13:33N 40°36' E 001°26'1111.3
2015-May-24 12:33N 40°44' E 001°36'1111.5
2015-May-24 11:33N 40°53' E 001°46'1211.7
2015-May-24 10:33N 41°02' E 001°55'1211.9
2015-May-24 09:33N 41°11' E 002°05'10 9.9
2015-May-24 08:32N 41°21' E 002°10'0 0.1
2015-May-24 07:31N 41°21' E 002°10'0 0.0
2015-May-24 06:28N 41°21' E 002°10'0 0.0
2015-May-24 03:23N 41°21' E 002°10'0 0.0
2015-May-24 01:16N 41°21' E 002°10'0 0.0
2015-May-24 00:29N 41°21' E 002°10'0 0.0
2015-May-23 23:26N 41°21' E 002°10'1 0.7
2015-May-23 22:32N 41°20' E 002°10'7 5.7
2015-May-23 21:21N 41°14' E 002°07'1012.4
2015-May-23 20:30N 41°09' E 001°55'1612.2
2015-May-23 19:12N 41°06' E 001°34'812.0
2015-May-23 18:32N 41°05' E 001°24'8 5.9
2015-May-23 17:07N 41°06' E 001°13'0 0.0
2015-May-23 16:32N 41°06' E 001°13'0 0.0
2015-May-23 15:20N 41°06' E 001°13'28413.0
2015-May-22 17:33N 43°07' E 006°59'1616.5
2015-May-22 16:33N 43°17' E 007°17'1616.5
2015-May-22 15:33N 43°27' E 007°34'2417.1
2015-May-22 14:08N 43°42' E 008°01'1118.0
2015-May-22 13:30N 43°49' E 008°14'1718.1
2015-May-22 12:34N 44°01' E 008°31'1817.8
2015-May-22 11:34N 44°13' E 008°49'1211.7
2015-May-22 10:33N 44°24' E 008°55'1 1.1
2015-May-22 09:33N 44°24' E 008°54'0 0.0
2015-May-22 08:33N 44°24' E 008°54'0 0.0
2015-May-22 07:33N 44°24' E 008°54'0 0.0
2015-May-22 06:33N 44°24' E 008°54'0 0.0
2015-May-22 05:33N 44°24' E 008°54'0 0.0
2015-May-22 04:27N 44°24' E 008°54'0 0.0
2015-May-22 03:30N 44°24' E 008°54'0 0.0
2015-May-22 02:33N 44°24' E 008°54'0 0.0
2015-May-22 01:30N 44°24' E 008°54'0 0.0
2015-May-22 00:33N 44°24' E 008°54'0 0.0
2015-May-21 23:33N 44°24' E 008°54'0 0.0
2015-May-21 22:33N 44°24' E 008°54'0 0.0
2015-May-21 21:30N 44°24' E 008°54'0 0.0
2015-May-21 20:33N 44°24' E 008°54'0 0.0
2015-May-21 19:30N 44°24' E 008°54'0 0.0
2015-May-21 18:33N 44°24' E 008°54'0 0.0
2015-May-21 17:33N 44°24' E 008°54'0 0.0
2015-May-21 16:33N 44°24' E 008°54'0 0.0
2015-May-21 15:33N 44°24' E 008°54'0 0.0
2015-May-21 14:30N 44°24' E 008°54'0 0.0
2015-May-21 13:33N 44°24' E 008°54'0 0.2
2015-May-21 12:33N 44°24' E 008°54'4 3.8
2015-May-21 11:33N 44°22' E 008°58'8 7.9
2015-May-21 10:33N 44°15' E 009°04'1918.6
2015-May-21 09:33N 44°01' E 009°20'1818.2
2015-May-21 08:33N 43°46' E 009°36'1817.8
2015-May-21 07:33N 43°33' E 009°52'1616.3
2015-May-21 06:33N 43°31' E 010°14'5 4.9
2015-May-21 05:32N 43°35' E 010°18'0 0.0
2015-May-21 04:32N 43°35' E 010°18'0 0.0
2015-May-21 03:32N 43°35' E 010°18'0 0.0
2015-May-21 02:32N 43°35' E 010°18'0 0.0
2015-May-21 01:32N 43°35' E 010°18'0 0.0
2015-May-21 00:32N 43°35' E 010°18'0 0.0
2015-May-20 23:32N 43°35' E 010°18'0 0.0
2015-May-20 22:29N 43°35' E 010°18'0 0.0
2015-May-20 21:32N 43°35' E 010°18'0 0.0
2015-May-20 20:32N 43°35' E 010°18'0 0.0
2015-May-20 19:32N 43°35' E 010°18'0 0.0
2015-May-20 18:32N 43°35' E 010°18'0 0.0
2015-May-20 17:32N 43°35' E 010°18'0 0.0
2015-May-20 16:32N 43°35' E 010°18'0 0.0
2015-May-20 15:32N 43°35' E 010°18'0 0.0
2015-May-20 14:29N 43°35' E 010°18'0 0.0
2015-May-20 13:32N 43°35' E 010°18'0 0.0
2015-May-20 12:32N 43°35' E 010°18'0 0.0
2015-May-20 11:32N 43°35' E 010°18'0 0.0
2015-May-20 10:32N 43°35' E 010°18'0 0.0
2015-May-20 09:32N 43°35' E 010°18'0 0.0
2015-May-20 08:32N 43°35' E 010°18'0 0.0
2015-May-20 07:32N 43°35' E 010°18'2 2.1
2015-May-20 06:33N 43°33' E 010°17'5 4.9
2015-May-20 05:34N 43°29' E 010°13'1 1.0
2015-May-20 04:34N 43°28' E 010°12'2 2.4
2015-May-20 03:34N 43°26' E 010°12'10 9.7
2015-May-20 02:34N 43°16' E 010°10'1313.1
2015-May-20 01:33N 43°03' E 010°06'1514.7
2015-May-20 00:33N 42°49' E 010°00'1614.6
2015-May-19 23:29N 42°34' E 009°55'1814.6
2015-May-19 22:17N 42°17' E 010°00'23114.7
2015-May-19 06:33N 39°42' E 013°47'1714.8
2015-May-19 05:26N 39°31' E 014°03'1314.4
2015-May-19 04:32N 39°22' E 014°15'1414.6
2015-May-19 03:33N 39°13' E 014°29'3214.7
2015-May-19 01:22N 38°51' E 015°00'41912.8
2015-May-17 16:34N 36°57' E 023°31'1515.1
2015-May-17 15:34N 37°11' E 023°37'1515.2
2015-May-17 14:33N 37°26' E 023°41'1212.5
2015-May-17 13:33N 37°38' E 023°42'1313.3
2015-May-17 12:33N 37°51' E 023°36'6 5.9
2015-May-17 11:29N 37°57' E 023°36'0 0.0
2015-May-17 10:32N 37°57' E 023°36'0 0.0
2015-May-17 09:32N 37°57' E 023°36'0 0.0
2015-May-17 08:29N 37°57' E 023°36'0 0.0
2015-May-17 07:29N 37°57' E 023°36'0 0.0
2015-May-17 06:32N 37°57' E 023°36'0 0.0
2015-May-17 05:29N 37°57' E 023°36'0 0.0
2015-May-17 04:29N 37°57' E 023°36'0 0.0
2015-May-17 03:29N 37°57' E 023°36'0 0.0
2015-May-17 02:29N 37°57' E 023°36'  

Dump ship's entire track history